Time;durP1;ratioP1;P1;durP2;ratioP2;P2;SDS_P1;SDS_P2;PMS_P1;PMS_P2;Temp;Humidity;BMP_temperature;BMP_pressure;BME280_temperature;BME280_humidity;BME280_pressure;Samples;Min_cycle;Max_cycle;Signal;HPM_P1;HPM_P2
2021/08/27 00:02:55;;;;;;;14.83;11.07;;;;;;;11.43;84.14;98248.56;2128292;83;20986;-78
2021/08/27 00:05:56;;;;;;;14.80;13.00;;;;;;;11.43;84.06;98243.34;2127951;84;21340;-77
2021/08/27 00:08:58;;;;;;;15.27;10.50;;;;;;;11.45;83.90;98245.95;2127688;84;21039;-79
2021/08/27 00:11:58;;;;;;;11.73;9.97;;;;;;;11.42;83.81;98257.27;2128080;83;21001;-80
2021/08/27 00:14:59;;;;;;;14.85;10.93;;;;;;;11.38;83.80;98268.60;2128279;83;20988;-79
2021/08/27 00:17:59;;;;;;;12.77;10.33;;;;;;;11.34;83.73;98264.25;2128107;84;20981;-80
2021/08/27 00:21:00;;;;;;;18.03;13.03;;;;;;;11.31;83.73;98256.84;2128112;84;20969;-79
2021/08/27 00:24:03;;;;;;;18.53;14.73;;;;;;;11.29;83.69;98250.75;2128260;84;20965;-80
2021/08/27 00:27:03;;;;;;;15.23;13.40;;;;;;;11.29;83.77;98243.78;2128102;83;21005;-80
2021/08/27 00:30:03;;;;;;;18.70;12.10;;;;;;;11.28;83.77;98237.25;2127813;84;21044;-79
2021/08/27 00:33:03;;;;;;;18.80;13.10;;;;;;;11.25;83.82;98236.78;2127964;84;20996;-80
2021/08/27 00:36:04;;;;;;;22.77;13.77;;;;;;;11.22;83.29;98235.48;2128262;84;21258;-82
2021/08/27 00:39:04;;;;;;;17.23;13.80;;;;;;;11.13;82.74;98227.21;2127865;84;20973;-81
2021/08/27 00:42:05;;;;;;;18.40;12.73;;;;;;;11.02;82.55;98221.55;2128212;84;20964;-80
2021/08/27 00:45:05;;;;;;;17.33;13.27;;;;;;;10.94;82.28;98222.86;2128171;84;21024;-80
2021/08/27 00:48:06;;;;;;;14.70;13.03;;;;;;;10.85;82.32;98223.73;2128196;84;21009;-80
2021/08/27 00:51:06;;;;;;;21.40;15.30;;;;;;;10.78;82.54;98224.59;2128119;84;20965;-79
2021/08/27 00:54:07;;;;;;;14.83;12.13;;;;;;;10.71;82.10;98231.10;2128329;84;20957;-79
2021/08/27 00:57:07;;;;;;;14.13;12.27;;;;;;;10.58;82.04;98236.73;2128342;84;21376;-79
2021/08/27 01:00:08;;;;;;;17.53;13.10;;;;;;;10.51;82.25;98234.98;2128273;83;21019;-79
2021/08/27 01:03:09;;;;;;;15.93;12.57;;;;;;;10.46;82.11;98236.71;2128193;83;21008;-79
2021/08/27 01:06:09;;;;;;;20.97;12.80;;;;;;;10.42;82.27;98242.35;2128136;83;20985;-80
2021/08/27 01:09:10;;;;;;;29.07;12.90;;;;;;;10.41;82.32;98249.74;2127958;84;20985;-79
2021/08/27 01:12:10;;;;;;;14.67;11.50;;;;;;;10.41;82.40;98244.52;2128130;84;20933;-79
2021/08/27 01:15:11;;;;;;;15.90;11.30;;;;;;;10.45;82.48;98240.19;2128519;83;20977;-79
2021/08/27 01:18:11;;;;;;;14.83;10.10;;;;;;;10.43;82.49;98235.39;2128514;84;21012;-78
2021/08/27 01:21:12;;;;;;;52.43;10.23;;;;;;;10.39;82.20;98240.13;2128200;84;21005;-81
2021/08/27 01:24:13;;;;;;;20.27;9.53;;;;;;;10.35;82.32;98250.13;2128287;84;20985;-81
2021/08/27 01:27:13;;;;;;;16.33;9.33;;;;;;;10.36;82.90;98251.87;2128243;84;21008;-80
2021/08/27 01:30:14;;;;;;;10.20;8.40;;;;;;;10.34;83.02;98260.99;2126751;83;21376;-78
2021/08/27 01:33:14;;;;;;;10.57;8.20;;;;;;;10.36;83.42;98254.47;2128028;84;21451;-78
2021/08/27 01:36:15;;;;;;;37.63;10.80;;;;;;;10.36;83.35;98250.13;2128149;84;20969;-79
2021/08/27 01:39:17;;;;;;;11.17;8.10;;;;;;;10.37;83.26;98245.78;2098549;84;21044;-79
2021/08/27 01:42:18;;;;;;;12.77;8.63;;;;;;;10.30;82.55;98251.41;2128223;84;21408;-81
2021/08/27 01:45:18;;;;;;;11.23;8.80;;;;;;;10.23;82.65;98253.99;2128374;84;21025;-79
2021/08/27 01:48:19;;;;;;;10.30;8.50;;;;;;;10.17;82.94;98255.68;2128103;84;21004;-79
2021/08/27 01:51:20;;;;;;;17.60;9.10;;;;;;;10.17;82.95;98258.29;2127891;83;21221;-80
2021/08/27 01:54:20;;;;;;;19.07;9.30;;;;;;;10.21;83.34;98260.51;2127679;83;21020;-79
2021/08/27 01:57:21;;;;;;;13.90;8.87;;;;;;;10.24;83.35;98259.65;2127514;83;20985;-80
2021/08/27 02:00:21;;;;;;;10.53;9.10;;;;;;;10.25;83.45;98249.66;2127921;84;21356;-80
2021/08/27 02:03:22;;;;;;;10.97;9.20;;;;;;;10.28;83.55;98254.45;2128197;84;20952;-80
2021/08/27 02:06:22;;;;;;;17.77;9.53;;;;;;;10.27;83.51;98246.19;2128025;83;21017;-79
2021/08/27 02:09:23;;;;;;;24.03;9.63;;;;;;;10.28;83.51;98239.23;2128137;84;21373;-79
2021/08/27 02:12:23;;;;;;;12.93;7.90;;;;;;;10.30;83.27;98233.16;2128683;84;21032;-79
2021/08/27 02:15:23;;;;;;;17.93;9.23;;;;;;;10.31;83.10;98230.11;2128127;83;20957;-80
2021/08/27 02:18:24;;;;;;;10.13;8.80;;;;;;;10.28;82.88;98226.19;2128192;83;21028;-80
2021/08/27 02:21:24;;;;;;;10.57;8.43;;;;;;;10.22;82.69;98230.95;2128096;83;20941;-80
2021/08/27 02:24:25;;;;;;;12.27;9.10;;;;;;;10.14;82.50;98236.55;2128116;84;21365;-80
2021/08/27 02:27:25;;;;;;;14.33;8.37;;;;;;;10.05;82.48;98241.28;2128289;84;20964;-80
2021/08/27 02:30:27;;;;;;;18.43;12.93;;;;;;;10.03;82.74;98241.72;2127561;84;21021;-79
2021/08/27 02:33:27;;;;;;;96.73;63.07;;;;;;;10.02;82.62;98241.27;2128073;83;20988;-79
2021/08/27 02:36:28;;;;;;;19.33;16.23;;;;;;;9.94;82.52;98237.77;2128118;83;21321;-78
2021/08/27 02:39:28;;;;;;;14.50;9.57;;;;;;;9.89;82.51;98241.65;2127418;84;20961;-78
2021/08/27 02:42:31;;;;;;;13.30;8.33;;;;;;;9.89;83.23;98235.13;2127982;83;21017;-78
2021/08/27 02:45:31;;;;;;;16.80;8.30;;;;;;;9.92;83.91;98244.70;2127906;83;21000;-79
2021/08/27 02:48:33;;;;;;;14.87;8.10;;;;;;;9.91;83.21;98244.27;2128122;84;21020;-79
2021/08/27 02:51:33;;;;;;;37.17;9.20;;;;;;;9.86;82.73;98246.84;2128222;83;21073;-80
2021/08/27 02:54:34;;;;;;;24.27;9.30;;;;;;;9.79;82.75;98257.23;2128131;84;20981;-78
2021/08/27 02:57:34;;;;;;;12.27;8.03;;;;;;;9.77;83.11;98257.66;2128242;84;20981;-79
2021/08/27 03:00:35;;;;;;;8.87;6.57;;;;;;;9.70;82.60;98263.70;2127708;83;21008;-79
2021/08/27 03:03:35;;;;;;;12.47;9.33;;;;;;;9.58;82.38;98264.06;2128097;84;20957;-78
2021/08/27 03:06:36;;;;;;;12.53;7.80;;;;;;;9.51;82.51;98268.76;2127966;84;20925;-78
2021/08/27 03:09:36;;;;;;;11.43;8.27;;;;;;;9.44;82.73;98282.60;2127744;83;21680;-78
2021/08/27 03:12:37;;;;;;;171.70;16.30;;;;;;;9.39;83.09;98282.12;2127603;84;20989;-78
2021/08/27 03:15:37;;;;;;;16.07;8.00;;;;;;;9.37;83.34;98287.33;2128109;83;21056;-78
2021/08/27 03:18:38;;;;;;;13.90;7.57;;;;;;;9.41;83.89;98287.79;2127742;83;20934;-78
2021/08/27 03:21:39;;;;;;;15.63;7.90;;;;;;;9.43;83.85;98285.20;2128218;84;20973;-79
2021/08/27 03:24:39;;;;;;;11.97;7.50;;;;;;;9.42;83.62;98291.27;2128065;84;20953;-78
2021/08/27 03:27:40;;;;;;;14.37;9.27;;;;;;;9.41;83.71;98290.39;2127989;83;21044;-79
2021/08/27 03:30:40;;;;;;;19.10;9.77;;;;;;;9.46;83.82;98291.30;2127526;82;21009;-78
2021/08/27 03:33:41;;;;;;;8.50;7.70;;;;;;;9.56;84.12;98291.84;2128129;83;20988;-78
2021/08/27 03:36:44;;;;;;;11.47;7.37;;;;;;;9.70;84.17;98293.67;2128068;84;21364;-79
2021/08/27 03:39:45;;;;;;;18.23;7.20;;;;;;;9.78;84.05;98293.28;2127395;83;21403;-78
2021/08/27 03:42:45;;;;;;;14.27;7.30;;;;;;;9.86;84.08;98295.50;2127061;84;20969;-78
2021/08/27 03:45:45;;;;;;;12.00;8.63;;;;;;;9.95;84.34;98292.95;2127037;84;20969;-77
2021/08/27 03:48:46;;;;;;;13.37;8.17;;;;;;;10.06;84.45;98295.61;2127241;84;21409;-79
2021/08/27 03:51:47;;;;;;;15.30;7.87;;;;;;;10.08;84.22;98293.89;2127225;83;20997;-78
2021/08/27 03:54:47;;;;;;;14.13;8.20;;;;;;;10.10;84.08;98296.06;2127481;84;21331;-80
2021/08/27 03:57:48;;;;;;;9.40;6.87;;;;;;;10.12;83.90;98305.64;2126866;84;21468;-78
2021/08/27 04:00:48;;;;;;;14.97;7.07;;;;;;;10.12;83.40;98308.25;2127374;83;21052;-79
2021/08/27 04:03:49;;;;;;;11.03;6.80;;;;;;;10.14;83.35;98314.78;2127363;84;20988;-79
2021/08/27 04:06:49;;;;;;;11.87;6.83;;;;;;;10.18;83.46;98319.14;2127085;83;21044;-79
2021/08/27 04:09:50;;;;;;;10.27;7.40;;;;;;;10.21;83.31;98311.37;2127223;83;20930;-78
2021/08/27 04:12:50;;;;;;;22.27;7.60;;;;;;;10.18;83.23;98309.59;2128028;84;21396;-80
2021/08/27 04:15:51;;;;;;;11.93;6.80;;;;;;;10.19;83.37;98310.45;2127091;84;20964;-78
2021/08/27 04:18:51;;;;;;;7.20;6.43;;;;;;;10.20;83.45;98318.75;2127468;84;21040;-78
2021/08/27 04:21:52;;;;;;;10.00;6.77;;;;;;;10.21;83.35;98316.16;2126496;84;20957;-79
2021/08/27 04:24:52;;;;;;;14.17;6.33;;;;;;;10.26;83.38;98323.13;2127059;83;20948;-80
2021/08/27 04:27:53;;;;;;;9.20;6.23;;;;;;;10.30;83.39;98327.50;2126961;83;20980;-78
2021/08/27 04:30:53;;;;;;;10.67;6.60;;;;;;;10.38;83.38;98331.02;2136181;83;21491;-78
2021/08/27 04:33:54;;;;;;;9.37;6.70;;;;;;;10.42;83.07;98331.50;2143659;83;20999;-79
2021/08/27 04:36:54;;;;;;;32.63;7.33;;;;;;;10.48;83.14;98334.13;2144006;83;21014;-77
2021/08/27 04:39:55;;;;;;;8.60;6.03;;;;;;;10.53;83.12;98329.80;2143878;83;21010;-77
2021/08/27 04:42:55;;;;;;;29.33;6.33;;;;;;;10.60;83.06;98334.17;2142460;83;20948;-78
2021/08/27 04:45:56;;;;;;;14.78;7.87;;;;;;;10.65;82.95;98332.45;2142976;83;21312;-79
2021/08/27 04:48:56;;;;;;;17.73;8.60;;;;;;;10.67;82.85;98331.16;2144065;83;20978;-78
2021/08/27 04:51:57;;;;;;;28.03;18.53;;;;;;;10.95;83.13;98336.02;2144938;83;20951;-79
2021/08/27 04:54:58;;;;;;;64.83;42.27;;;;;;;10.98;82.55;98338.63;2144832;83;20988;-79
2021/08/27 04:57:58;;;;;;;15.10;8.73;;;;;;;10.97;82.45;98349.52;2143737;83;20942;-79
2021/08/27 05:00:59;;;;;;;15.33;8.00;;;;;;;10.95;82.32;98353.86;2143433;83;21689;-79
2021/08/27 05:03:59;;;;;;;18.83;7.50;;;;;;;10.95;82.38;98349.07;2144107;83;20983;-81
2021/08/27 05:07:00;;;;;;;29.63;12.17;;;;;;;10.96;82.57;98357.34;2143182;83;20983;-80
2021/08/27 05:10:00;;;;;;;14.20;8.67;;;;;;;11.02;82.94;98354.75;2143351;83;20923;-78
2021/08/27 05:13:01;;;;;;;14.00;8.23;;;;;;;11.09;82.94;98351.28;2143181;83;20923;-78
2021/08/27 05:16:02;;;;;;;21.73;8.08;;;;;;;11.20;82.98;98349.55;2143527;83;21311;-78
2021/08/27 05:19:02;;;;;;;10.38;7.60;;;;;;;11.29;83.01;98345.68;2143982;83;20967;-79
2021/08/27 05:22:03;;;;;;;12.15;7.17;;;;;;;11.41;82.91;98356.58;2144500;83;21323;-79
2021/08/27 05:25:03;;;;;;;8.65;6.10;;;;;;;11.47;82.77;98349.61;2144098;83;21639;-78
2021/08/27 05:28:04;;;;;;;9.20;6.95;;;;;;;11.60;82.87;98353.09;2143031;83;21049;-78
2021/08/27 05:31:04;;;;;;;8.68;5.97;;;;;;;11.74;82.59;98351.78;2129645;83;21019;-79
2021/08/27 05:34:07;;;;;;;13.05;6.60;;;;;;;11.78;82.48;98354.86;2127890;84;20956;-78
2021/08/27 05:37:07;;;;;;;11.73;6.62;;;;;;;11.90;82.35;98361.83;2172882;82;20953;-79
2021/08/27 05:40:08;;;;;;;12.15;6.67;;;;;;;12.01;82.30;98355.70;2172891;81;21294;-79
2021/08/27 05:43:08;;;;;;;10.57;7.97;;;;;;;12.19;82.20;98352.66;2172874;81;21016;-79
2021/08/27 05:46:09;;;;;;;12.23;6.95;;;;;;;12.38;82.01;98353.03;2172830;81;21000;-80
2021/08/27 05:49:09;;;;;;;9.83;5.60;;;;;;;12.53;81.58;98354.72;2172429;81;20976;-80
2021/08/27 05:52:12;;;;;;;8.48;6.15;;;;;;;12.67;81.26;98350.30;2160351;82;20920;-80
2021/08/27 05:55:12;;;;;;;9.90;6.37;;;;;;;12.78;80.98;98358.11;2172846;81;20972;-80
2021/08/27 05:58:13;;;;;;;12.63;6.12;;;;;;;12.89;80.72;98351.94;2173037;82;20969;-78
2021/08/27 06:01:13;;;;;;;9.08;6.15;;;;;;;13.02;80.54;98350.16;2173017;81;21008;-80
2021/08/27 06:04:14;;;;;;;8.78;6.78;;;;;;;13.15;80.08;98350.95;2172870;82;21352;-80
2021/08/27 06:07:15;;;;;;;9.88;6.87;;;;;;;13.29;79.89;98351.77;2172973;82;20964;-80
2021/08/27 06:10:16;;;;;;;16.82;6.33;;;;;;;13.50;79.39;98352.05;2173547;82;20996;-79
2021/08/27 06:13:17;;;;;;;8.48;6.53;;;;;;;13.67;79.00;98351.47;2172569;82;20961;-81
2021/08/27 06:16:17;;;;;;;25.48;15.43;;;;;;;13.84;78.44;98360.50;2172377;81;20948;-80
2021/08/27 06:19:18;;;;;;;9.08;7.60;;;;;;;14.00;78.22;98364.77;2172474;81;20972;-80
2021/08/27 06:22:19;;;;;;;14.05;9.35;;;;;;;14.11;77.95;98367.28;2172706;81;20945;-82
2021/08/27 06:25:20;;;;;;;9.18;5.90;;;;;;;14.18;77.84;98376.39;2173150;82;20969;-82
2021/08/27 06:28:20;;;;;;;11.57;6.50;;;;;;;14.32;77.92;98374.94;2173172;81;21341;-80
2021/08/27 06:31:21;;;;;;;17.30;7.10;;;;;;;14.46;77.37;98364.31;2187391;81;21399;-80
2021/08/27 06:34:21;;;;;;;6.60;5.75;;;;;;;14.68;76.59;98359.23;2189096;81;20980;-82
2021/08/27 06:38:19;;;;;;;10.65;6.55;;;;;;;14.84;75.58;98354.69;2188639;81;21015;-81
2021/08/27 06:40:24;;;;;;;8.40;6.72;;;;;;;15.19;75.61;98361.64;2142016;83;20982;-81
2021/08/27 06:43:29;;;;;;;8.68;6.40;;;;;;;15.43;74.75;98363.49;2144638;83;20920;-79
2021/08/27 06:46:29;;;;;;;8.78;6.80;;;;;;;15.56;73.91;98372.93;2144688;83;21012;-80
2021/08/27 06:49:30;;;;;;;8.23;6.58;;;;;;;15.37;73.47;98363.14;2144379;83;20982;-77
2021/08/27 06:52:31;;;;;;;10.70;7.80;;;;;;;15.38;73.83;98362.25;2144002;83;21351;-80
2021/08/27 06:55:32;;;;;;;13.65;12.35;;;;;;;15.27;73.44;98366.80;2143340;83;21351;-81
2021/08/27 06:58:32;;;;;;;13.93;12.28;;;;;;;14.93;73.45;98367.70;2121887;84;21001;-80
2021/08/27 07:01:33;;;;;;;12.15;10.85;;;;;;;15.07;74.09;98365.77;2121462;84;21028;-80
2021/08/27 07:04:34;;;;;;;10.23;8.73;;;;;;;15.13;73.29;98365.67;2122021;84;21388;-80
2021/08/27 07:07:35;;;;;;;9.88;7.70;;;;;;;15.15;73.58;98369.16;2121737;84;21048;-80
2021/08/27 07:10:35;;;;;;;9.50;7.67;;;;;;;15.28;73.11;98376.42;2121031;84;21336;-79
2021/08/27 07:13:36;;;;;;;10.23;7.95;;;;;;;15.27;73.06;98376.87;2120878;84;20961;-80
2021/08/27 07:16:36;;;;;;;9.50;7.92;;;;;;;15.34;73.13;98376.78;2121576;84;20956;-81
2021/08/27 07:19:37;;;;;;;12.65;9.48;;;;;;;15.63;72.55;98377.72;2120951;84;20968;-80
2021/08/27 07:22:37;;;;;;;9.50;7.50;;;;;;;15.60;72.11;98376.87;2121035;84;21008;-79
2021/08/27 07:25:38;;;;;;;8.90;8.00;;;;;;;15.72;72.97;98369.23;2121630;84;21609;-80
2021/08/27 07:28:39;;;;;;;10.70;7.17;;;;;;;15.88;71.97;98373.34;2122563;84;21005;-80
2021/08/27 07:31:39;;;;;;;9.48;7.78;;;;;;;15.93;71.73;98377.21;2112535;84;21056;-80
2021/08/27 07:34:40;;;;;;;11.85;7.08;;;;;;;16.37;71.63;98384.77;2111610;84;20985;-81
2021/08/27 07:37:41;;;;;;;6.00;5.33;;;;;;;16.72;70.51;98384.16;2111512;84;20954;-80
2021/08/27 07:40:41;;;;;;;13.85;6.40;;;;;;;16.68;69.45;98387.75;2111859;84;20985;-82
2021/08/27 07:43:42;;;;;;;7.22;5.83;;;;;;;16.84;69.89;98380.81;2128357;83;21012;-80
2021/08/27 07:46:42;;;;;;;13.50;7.15;;;;;;;17.28;67.60;98389.99;2128136;84;21036;-80
2021/08/27 07:49:48;;;;;;;6.08;5.10;;;;;;;17.68;68.36;98384.73;2128605;84;21013;-80
2021/08/27 07:52:48;;;;;;;9.03;5.40;;;;;;;17.89;66.85;98388.16;2128212;83;21020;-81
2021/08/27 07:55:49;;;;;;;7.15;4.95;;;;;;;17.78;67.01;98384.47;2128792;83;20988;-79
2021/08/27 07:58:50;;;;;;;14.53;6.45;;;;;;;17.77;66.34;98388.02;2128249;83;21412;-79
2021/08/27 08:01:50;;;;;;;16.10;5.72;;;;;;;17.85;66.66;98388.28;2128541;83;21396;-78
2021/08/27 08:04:51;;;;;;;4.50;4.10;;;;;;;18.55;65.60;98392.63;2127531;83;20989;-80
2021/08/27 08:07:51;;;;;;;15.00;4.45;;;;;;;19.20;65.21;98393.05;2128086;84;21016;-80
2021/08/27 08:10:52;;;;;;;8.33;5.05;;;;;;;19.73;63.78;98392.28;2127436;84;20992;-81
2021/08/27 08:13:54;;;;;;;3.70;3.40;;;;;;;20.00;62.75;98391.00;2099403;84;20980;-80
2021/08/27 08:16:54;;;;;;;6.08;3.90;;;;;;;20.32;60.07;98388.58;2126997;84;21004;-80
2021/08/27 08:19:55;;;;;;;3.98;3.67;;;;;;;20.16;59.46;98390.89;2127595;83;20944;-80
2021/08/27 08:22:57;;;;;;;4.20;3.80;;;;;;;19.77;59.73;98393.50;2127687;84;21400;-80
2021/08/27 08:25:57;;;;;;;6.75;3.80;;;;;;;19.60;60.30;98396.69;2126912;83;20997;-79
2021/08/27 08:28:58;;;;;;;4.05;3.55;;;;;;;19.50;59.96;98399.18;2126809;84;21452;-81
2021/08/27 08:31:58;;;;;;;6.85;3.80;;;;;;;19.22;59.54;98401.80;2126176;84;21009;-80
2021/08/27 08:34:59;;;;;;;5.75;4.17;;;;;;;18.83;60.55;98398.05;2126780;84;20964;-79
2021/08/27 08:38:00;;;;;;;4.35;3.55;;;;;;;18.49;60.90;98399.41;2126250;84;20933;-79
2021/08/27 08:41:00;;;;;;;4.80;3.10;;;;;;;18.33;61.36;98401.59;2126522;84;21000;-79
2021/08/27 08:44:01;;;;;;;8.53;3.12;;;;;;;18.31;61.86;98405.18;2126706;83;21356;-80
2021/08/27 08:47:02;;;;;;;4.42;3.75;;;;;;;18.31;61.58;98406.05;2126746;84;21064;-79
2021/08/27 08:50:03;;;;;;;5.45;3.25;;;;;;;18.34;61.07;98410.38;2127284;83;21401;-79
2021/08/27 08:53:03;;;;;;;4.37;3.98;;;;;;;18.42;61.15;98417.20;2127227;84;21000;-79
2021/08/27 08:56:05;;;;;;;4.20;3.80;;;;;;;18.46;61.20;98416.22;2128072;84;21407;-79
2021/08/27 08:59:06;;;;;;;4.20;3.80;;;;;;;18.51;61.32;98416.55;2127156;84;20960;-79
2021/08/27 09:02:08;;;;;;;3.50;3.15;;;;;;;18.52;60.40;98419.14;2127138;83;21048;-82
2021/08/27 09:05:08;;;;;;;6.53;3.77;;;;;;;18.45;61.37;98421.08;2127732;83;20945;-81
2021/08/27 09:08:09;;;;;;;3.98;3.65;;;;;;;18.23;61.15;98423.87;2127197;84;21460;-79
2021/08/27 09:11:09;;;;;;;4.20;3.02;;;;;;;17.97;61.89;98423.63;2127353;84;21357;-81
2021/08/27 09:14:10;;;;;;;3.40;3.10;;;;;;;17.68;62.53;98426.51;2126783;84;21004;-80
2021/08/27 09:17:10;;;;;;;2.90;2.70;;;;;;;17.33;63.01;98428.56;2126832;84;20984;-80
2021/08/27 09:20:11;;;;;;;76.90;10.25;;;;;;;17.17;64.17;98425.83;2126809;84;20996;-81
2021/08/27 09:23:14;;;;;;;6.78;3.42;;;;;;;16.95;64.46;98417.50;2127051;84;20957;-81
2021/08/27 09:26:14;;;;;;;5.70;3.62;;;;;;;16.77;65.73;98416.55;2127675;83;21036;-80
2021/08/27 09:29:14;;;;;;;4.42;3.72;;;;;;;16.62;65.58;98416.37;2127935;83;21052;-80
2021/08/27 09:32:16;;;;;;;4.30;3.90;;;;;;;16.54;66.94;98424.42;2136527;83;21071;-78
2021/08/27 09:35:18;;;;;;;6.78;4.62;;;;;;;16.47;67.44;98414.89;2138477;83;21079;-78
2021/08/27 09:38:18;;;;;;;6.53;4.40;;;;;;;16.43;67.71;98410.55;2143524;83;21026;-79
2021/08/27 09:41:19;;;;;;;4.42;4.03;;;;;;;16.42;68.40;98415.39;2143574;83;20967;-78
2021/08/27 09:44:20;;;;;;;7.37;5.35;;;;;;;16.44;68.38;98417.55;2143335;83;20983;-80
2021/08/27 09:47:20;;;;;;;4.83;4.17;;;;;;;16.53;68.96;98418.73;2143661;83;21031;-79
2021/08/27 09:50:21;;;;;;;10.55;4.35;;;;;;;16.76;68.35;98418.77;2144182;83;21370;-82
2021/08/27 09:53:22;;;;;;;5.00;4.60;;;;;;;17.04;67.75;98417.31;2145361;83;20975;-82
2021/08/27 09:56:22;;;;;;;5.25;3.85;;;;;;;17.39;66.33;98415.27;2145308;83;20999;-81
2021/08/27 09:59:23;;;;;;;4.22;3.30;;;;;;;17.78;65.11;98416.15;2144587;83;21737;-80
2021/08/27 10:02:23;;;;;;;7.85;4.08;;;;;;;18.31;64.55;98411.33;2143900;83;21003;-79
2021/08/27 10:05:24;;;;;;;38.20;7.45;;;;;;;18.54;63.14;98409.40;2143478;83;20951;-80
2021/08/27 10:08:24;;;;;;;11.80;5.03;;;;;;;18.66;63.59;98421.00;2143374;83;20971;-79
2021/08/27 10:11:25;;;;;;;6.28;4.00;;;;;;;18.89;63.22;98423.00;2144143;83;21354;-77
2021/08/27 10:14:25;;;;;;;7.62;6.37;;;;;;;19.00;61.57;98422.23;2143365;83;21038;-80
2021/08/27 10:17:26;;;;;;;4.72;4.03;;;;;;;19.05;61.78;98421.66;2144321;83;20948;-80
2021/08/27 10:20:27;;;;;;;5.22;3.85;;;;;;;19.23;60.69;98425.57;2143679;83;21074;-80
2021/08/27 10:23:28;;;;;;;6.35;3.00;;;;;;;19.33;59.03;98429.67;2144131;83;20935;-79
2021/08/27 10:26:28;;;;;;;3.72;2.90;;;;;;;19.37;59.34;98429.13;2144261;83;21039;-81
2021/08/27 10:29:29;;;;;;;3.10;2.80;;;;;;;19.52;57.10;98426.05;2143709;83;20984;-81
2021/08/27 10:32:29;;;;;;;5.03;2.67;;;;;;;19.81;58.27;98429.56;2138126;83;21015;-81
2021/08/27 10:35:30;;;;;;;2.60;2.40;;;;;;;20.23;55.94;98424.22;2136701;83;20991;-80
2021/08/27 10:38:30;;;;;;;3.40;2.52;;;;;;;20.50;55.71;98422.44;2137204;83;21399;-80
2021/08/27 10:41:31;;;;;;;3.22;2.20;;;;;;;20.75;52.79;98421.57;2136987;83;21702;-79
2021/08/27 10:44:31;;;;;;;6.30;2.30;;;;;;;20.85;53.58;98417.24;2137252;83;21091;-80
2021/08/27 10:47:32;;;;;;;8.38;2.58;;;;;;;21.21;53.76;98415.02;2136827;83;20963;-80
2021/08/27 10:50:32;;;;;;;3.08;2.08;;;;;;;21.50;50.11;98410.41;2136428;83;20980;-79
2021/08/27 10:53:34;;;;;;;2.65;2.17;;;;;;;21.45;50.06;98417.22;2135918;83;21015;-79
2021/08/27 10:56:34;;;;;;;4.10;2.67;;;;;;;21.31;51.10;98414.23;2136745;83;21380;-79
2021/08/27 10:59:38;;;;;;;4.33;2.42;;;;;;;21.53;51.47;98415.13;2136721;83;20912;-79
2021/08/27 11:02:38;;;;;;;2.65;2.45;;;;;;;21.68;50.96;98416.36;2135982;83;20991;-79
2021/08/27 11:05:39;;;;;;;41.75;13.62;;;;;;;21.66;50.64;98415.98;2136792;83;20979;-78
2021/08/27 11:08:39;;;;;;;2.92;2.60;;;;;;;21.56;50.80;98410.17;2138200;83;20971;-81
2021/08/27 11:11:40;;;;;;;5.45;2.83;;;;;;;21.59;50.58;98406.92;2137859;83;20971;-81
2021/08/27 11:14:40;;;;;;;2.17;2.00;;;;;;;21.66;50.00;98402.23;2137009;83;21394;-80
2021/08/27 11:17:41;;;;;;;38.65;3.92;;;;;;;21.70;49.49;98403.02;2136950;83;20943;-80
2021/08/27 11:20:41;;;;;;;5.28;2.25;;;;;;;21.56;49.40;98392.44;2137017;83;20948;-81
2021/08/27 11:23:42;;;;;;;2.60;1.80;;;;;;;21.60;49.80;98400.69;2137149;83;20975;-80
2021/08/27 11:26:42;;;;;;;2.62;1.90;;;;;;;21.57;49.26;98396.83;2137569;83;20979;-80
2021/08/27 11:29:43;;;;;;;2.35;1.80;;;;;;;21.59;49.45;98398.95;2137713;83;21002;-80
2021/08/27 11:32:43;;;;;;;1.90;1.80;;;;;;;21.57;48.37;98392.84;2137169;82;21031;-78
2021/08/27 11:35:45;;;;;;;2.00;1.75;;;;;;;21.36;48.56;98395.02;2136929;83;20951;-81
2021/08/27 11:38:45;;;;;;;8.33;2.80;;;;;;;21.25;49.06;98396.75;2136601;83;21012;-80
2021/08/27 11:41:46;;;;;;;2.95;2.05;;;;;;;21.26;49.65;98393.64;2137543;83;21301;-81
2021/08/27 11:44:55;;;;;;;4.20;2.20;;;;;;;21.11;49.28;98395.52;2138393;83;20959;-80
2021/08/27 11:47:49;;;;;;;2.00;1.80;;;;;;;20.92;49.65;98394.88;2181751;81;21031;-81
2021/08/27 11:50:52;;;;;;;2.83;2.22;;;;;;;20.79;50.17;98390.91;2183217;82;20972;-81
2021/08/27 11:53:52;;;;;;;2.35;2.08;;;;;;;20.84;50.85;98398.27;2183042;81;21097;-81
2021/08/27 11:56:53;;;;;;;4.35;2.60;;;;;;;20.91;50.41;98398.91;2182562;82;21024;-80
2021/08/27 11:59:55;;;;;;;4.55;2.35;;;;;;;21.10;50.32;98393.31;2163746;82;20995;-79
2021/08/27 12:02:56;;;;;;;4.92;2.50;;;;;;;21.34;50.13;98394.20;2182179;81;21003;-81
2021/08/27 12:05:56;;;;;;;3.25;2.20;;;;;;;21.60;50.15;98387.41;2182297;81;21316;-80
2021/08/27 12:08:57;;;;;;;2.85;2.30;;;;;;;21.91;50.17;98394.17;2182395;81;20956;-80
2021/08/27 12:11:57;;;;;;;3.65;2.15;;;;;;;22.08;48.93;98395.70;2183228;81;21007;-82
2021/08/27 12:14:58;;;;;;;4.10;2.10;;;;;;;21.90;48.04;98395.10;2182745;82;21003;-80
2021/08/27 12:17:58;;;;;;;13.18;11.33;;;;;;;21.78;48.34;98395.60;2163384;82;20925;-80
2021/08/27 12:20:59;;;;;;;2.50;2.30;;;;;;;21.86;48.52;98397.02;2182754;82;20987;-81
2021/08/27 12:24:01;;;;;;;4.80;2.50;;;;;;;21.88;48.13;98391.64;2183444;81;20944;-82
2021/08/27 12:27:01;;;;;;;3.95;2.12;;;;;;;21.85;47.98;98390.44;2138747;83;21347;-82
2021/08/27 12:30:02;;;;;;;20.43;2.90;;;;;;;21.51;47.44;98393.55;2138129;83;21007;-81
2021/08/27 12:33:02;;;;;;;4.25;2.12;;;;;;;21.35;48.96;98384.45;2138453;82;21026;-82
2021/08/27 12:36:03;;;;;;;2.22;2.00;;;;;;;21.31;49.37;98389.02;2138551;83;21015;-81
2021/08/27 12:39:03;;;;;;;3.22;2.35;;;;;;;21.22;49.59;98389.34;2139055;83;21386;-82
2021/08/27 12:42:04;;;;;;;11.00;2.70;;;;;;;21.21;49.65;98387.14;2138348;83;21008;-83
2021/08/27 12:45:04;;;;;;;4.28;2.08;;;;;;;21.15;49.63;98386.52;2138049;83;21018;-80
2021/08/27 12:48:05;;;;;;;7.80;3.22;;;;;;;20.96;49.56;98391.18;2137702;83;21003;-79
2021/08/27 12:51:09;;;;;;;2.22;2.02;;;;;;;20.68;49.51;98387.78;2137989;83;21019;-83
2021/08/27 12:54:08;;;;;;;3.62;1.80;;;;;;;20.42;50.27;98398.44;2182715;81;20971;-80
2021/08/27 12:57:09;;;;;;;2.17;1.95;;;;;;;20.04;51.17;98400.13;2183213;82;20992;-83
2021/08/27 13:00:10;;;;;;;3.17;2.05;;;;;;;19.67;52.42;98392.47;2183780;82;20988;-81
2021/08/27 13:03:11;;;;;;;2.42;2.02;;;;;;;19.45;54.07;98394.03;2182541;82;21015;-81
2021/08/27 13:06:11;;;;;;;5.87;3.40;;;;;;;19.31;53.98;98396.23;2182105;82;20955;-81
2021/08/27 13:09:12;;;;;;;3.58;3.02;;;;;;;19.08;55.07;98400.89;2182543;81;21007;-82
2021/08/27 13:12:12;;;;;;;2.87;2.40;;;;;;;18.94;55.50;98399.94;2183726;82;20964;-83
2021/08/27 13:15:13;;;;;;;4.17;3.77;;;;;;;18.83;55.37;98400.70;2183307;81;21351;-83
2021/08/27 13:18:13;;;;;;;2.95;2.70;;;;;;;18.74;55.90;98400.95;2182893;82;20984;-82
2021/08/27 13:21:14;;;;;;;4.00;2.87;;;;;;;18.65;56.13;98405.17;2182684;82;20948;-81
2021/08/27 13:24:14;;;;;;;6.05;3.70;;;;;;;18.52;56.16;98404.61;2183005;81;20956;-81
2021/08/27 13:27:15;;;;;;;6.90;3.67;;;;;;;18.34;57.21;98407.74;2183051;82;20975;-81
2021/08/27 13:30:16;;;;;;;3.05;2.65;;;;;;;18.13;58.68;98414.41;2183412;81;21308;-81
2021/08/27 13:33:16;;;;;;;3.17;2.83;;;;;;;17.97;59.21;98409.10;2146002;82;21082;-82
2021/08/27 13:36:17;;;;;;;6.80;3.00;;;;;;;17.91;60.64;98418.49;2141336;83;20951;-83
2021/08/27 13:39:17;;;;;;;21.80;5.60;;;;;;;17.87;61.20;98409.78;2140766;83;20999;-81
2021/08/27 13:42:18;;;;;;;4.17;2.77;;;;;;;17.87;62.02;98411.55;2140978;83;20963;-80
2021/08/27 13:48:20;;;;;;;3.75;2.85;;;;;;;17.74;61.78;98416.26;2124447;83;20999;-81
2021/08/27 13:51:21;;;;;;;5.55;3.20;;;;;;;17.71;62.05;98411.92;2141134;83;20959;-81
2021/08/27 13:54:22;;;;;;;3.62;3.08;;;;;;;17.71;62.74;98411.92;2141759;83;20983;-80
2021/08/27 13:57:22;;;;;;;5.70;3.10;;;;;;;17.73;63.52;98425.95;2141836;83;20943;-81
2021/08/27 14:00:22;;;;;;;3.58;2.58;;;;;;;17.81;63.51;98429.28;2140862;83;20935;-81
2021/08/27 14:03:23;;;;;;;2.42;2.27;;;;;;;17.81;63.51;98429.28;2141034;83;21018;-81
2021/08/27 14:06:24;;;;;;;3.80;2.65;;;;;;;17.86;62.91;98436.22;2140920;83;20951;-81
2021/08/27 14:09:24;;;;;;;2.58;2.37;;;;;;;17.90;61.98;98434.79;2140209;83;21070;-81